Time;durP1;ratioP1;P1;durP2;ratioP2;P2;SDS_P1;SDS_P2;PMS_P1;PMS_P2;Temp;Humidity;BMP_temperature;BMP_pressure;BME280_temperature;BME280_humidity;BME280_pressure;Samples;Min_cycle;Max_cycle;Signal;HPM_P1;HPM_P2
2022/01/27 00:02:45;;;;;;;64.27;57.47;;;3.40;99.90;;;;;;6236490;23;20404;-86
2022/01/27 00:12:36;;;;;;;53.50;32.77;;;3.30;99.70;;;;;;6173857;23;20416;-85
2022/01/27 00:38:40;;;;;;;67.53;58.07;;;3.00;99.90;;;;;;6163728;23;20474;-84
2022/01/27 01:00:54;;;;;;;98.27;89.37;;;3.00;99.90;;;;;;6219861;23;20428;-87
2022/01/27 01:04:14;;;;;;;;;;;;;;;;;;;;;
2022/01/27 01:07:00;;;;;;;103.33;94.93;;;3.10;99.90;;;;;;6235873;23;20410;-84
2022/01/27 01:32:17;;;;;;;105.37;96.10;;;3.10;99.90;;;;;;6222432;23;20415;-84
2022/01/27 01:35:27;;;;;;;;;;;;;;;;;;;;;
2022/01/27 01:38:25;;;;;;;120.53;111.90;;;3.10;99.90;;;;;;6197055;23;20415;-84
2022/01/27 01:51:01;;;;;;;142.37;131.90;;;3.10;99.90;;;;;;6113176;23;21180;-85
2022/01/27 01:53:33;;;;;;;164.03;152.50;;;3.00;99.90;;;;;;6172566;23;20406;-84
2022/01/27 01:56:49;;;;;;;142.30;133.63;;;3.10;99.90;;;;;;6169599;23;20488;-84
2022/01/27 02:10:11;;;;;;;150.87;140.73;;;3.20;99.90;;;;;;6231752;23;20440;-84
2022/01/27 02:22:39;;;;;;;;;;;;;;;;;;;;;
2022/01/27 02:34:33;;;;;;;147.67;138.23;;;3.30;99.90;;;;;;6044554;23;20446;-84
2022/01/27 02:38:05;;;;;;;;;;;;;;;;;;;;;
2022/01/27 02:41:31;;;;;;;151.17;140.87;;;3.30;99.90;;;;;;6235903;23;20396;-84
2022/01/27 02:51:11;;;;;;;145.73;135.57;;;3.30;99.90;;;;;;6166298;23;20459;-84
2022/01/27 02:54:05;;;;;;;147.43;136.63;;;3.20;99.90;;;;;;6215811;23;20450;-84
2022/01/27 03:17:02;;;;;;;152.27;141.67;;;3.40;99.90;;;;;;6052710;23;20481;-84
2022/01/27 03:23:38;;;;;;;;;;;;;;;;;;;;;
2022/01/27 03:26:29;;;;;;;131.33;122.37;;;3.40;99.90;;;;;;6235040;23;20404;-84
2022/01/27 03:35:14;;;;;;;135.17;126.57;;;3.40;99.90;;;;;;6172186;23;20409;-84
2022/01/27 03:51:29;;;;;;;146.10;135.87;;;3.30;99.90;;;;;;5961050;23;20507;-85
2022/01/27 03:54:02;;;;;;;138.77;129.73;;;3.30;99.90;;;;;;6123713;23;20413;-85
2022/01/27 03:56:31;;;;;;;128.53;120.83;;;3.30;99.90;;;;;;6200947;23;20510;-84
2022/01/27 03:59:41;;;;;;;133.47;125.37;;;3.30;99.90;;;;;;6206970;23;20436;-86
2022/01/27 04:05:56;;;;;;;147.77;137.63;;;3.30;99.90;;;;;;6183025;23;20421;-85
2022/01/27 04:12:11;;;;;;;159.57;148.97;;;3.40;99.90;;;;;;6169185;23;20441;-87
2022/01/27 04:15:17;;;;;;;162.53;153.63;;;3.40;99.90;;;;;;6183872;23;20411;-85
2022/01/27 04:25:19;;;;;;;;;;;;;;;;;;;;;
2022/01/27 04:44:06;;;;;;;233.10;220.40;;;3.50;99.90;;;;;;5969095;23;20420;-85
2022/01/27 04:47:48;;;;;;;260.23;245.40;;;3.60;99.90;;;;;;6079296;23;20857;-85
2022/01/27 04:57:45;;;;;;;300.00;286.70;;;3.80;99.90;;;;;;5902185;24;20441;-86
2022/01/27 05:04:31;;;;;;;;;;;;;;;;;;;;;
2022/01/27 05:07:54;;;;;;;;;;;;;;;;;;;;;
2022/01/27 05:19:52;;;;;;;;;;;;;;;;;;;;;
2022/01/27 05:29:51;;;;;;;142.13;134.27;;;4.40;99.90;;;;;;6003501;22;20913;-84
2022/01/27 05:32:42;;;;;;;143.40;134.50;;;4.50;99.90;;;;;;6195065;23;20903;-83
2022/01/27 05:35:38;;;;;;;;;;;;;;;;;;;;;
2022/01/27 05:38:05;;;;;;;133.00;124.03;;;4.70;99.90;;;;;;6202142;23;20815;-84
2022/01/27 05:40:32;;;;;;;129.00;120.80;;;4.60;99.90;;;;;;6173439;23;20766;-83
2022/01/27 05:43:22;;;;;;;101.90;94.17;;;4.70;99.90;;;;;;6163632;23;20744;-85
2022/01/27 05:48:31;;;;;;;82.47;75.67;;;4.70;99.90;;;;;;6108666;23;20445;-87
2022/01/27 05:51:17;;;;;;;74.73;69.00;;;4.80;99.90;;;;;;6173201;23;20409;-84
2022/01/27 05:54:25;;;;;;;69.33;63.57;;;4.80;99.90;;;;;;6178223;23;20417;-84
2022/01/27 05:57:27;;;;;;;71.23;64.63;;;4.80;99.90;;;;;;6094552;23;20504;-85
2022/01/27 05:59:54;;;;;;;73.53;67.70;;;4.90;99.90;;;;;;6173725;23;20439;-83
2022/01/27 06:02:22;;;;;;;73.30;66.80;;;4.80;99.90;;;;;;6173845;23;20405;-83
2022/01/27 06:04:51;;;;;;;70.77;64.60;;;4.90;99.90;;;;;;6174324;23;20414;-84
2022/01/27 06:07:21;;;;;;;65.67;59.63;;;4.90;99.90;;;;;;6176928;23;20417;-82
2022/01/27 06:09:50;;;;;;;68.50;62.37;;;4.90;99.90;;;;;;6175915;23;20477;-84
2022/01/27 06:12:17;;;;;;;74.53;68.17;;;4.90;99.90;;;;;;6165072;23;20927;-84
2022/01/27 06:14:44;;;;;;;63.73;58.13;;;4.90;99.90;;;;;;6175749;23;20405;-84
2022/01/27 06:17:11;;;;;;;62.03;55.67;;;5.00;99.90;;;;;;6174531;23;20433;-83
2022/01/27 06:19:43;;;;;;;61.80;56.50;;;5.20;99.90;;;;;;6163711;23;20462;-84
2022/01/27 06:22:11;;;;;;;52.23;46.77;;;5.10;99.90;;;;;;6165923;23;20398;-84
2022/01/27 06:24:43;;;;;;;55.80;50.90;;;5.20;99.90;;;;;;6166978;23;20526;-83
2022/01/27 06:27:14;;;;;;;51.13;46.53;;;5.10;99.90;;;;;;6145866;23;20411;-84
2022/01/27 06:29:48;;;;;;;51.30;46.43;;;5.30;99.90;;;;;;6134245;23;20442;-83
2022/01/27 06:32:22;;;;;;;49.23;44.77;;;5.30;99.90;;;;;;6145847;23;20422;-82
2022/01/27 06:34:56;;;;;;;46.63;41.83;;;5.20;99.90;;;;;;6144689;23;20429;-83
2022/01/27 06:38:00;;;;;;;48.20;43.57;;;5.20;99.90;;;;;;6145766;23;20437;-82
2022/01/27 06:40:31;;;;;;;41.60;37.17;;;5.40;99.90;;;;;;6117900;23;20434;-84
2022/01/27 06:43:18;;;;;;;;;;;;;;;;;;;;;
2022/01/27 06:46:17;;;;;;;42.27;37.67;;;5.50;99.90;;;;;;6139187;23;20474;-83
2022/01/27 06:52:26;;;;;;;;;;;;;;;;;;;;;
2022/01/27 06:59:05;;;;;;;;;;;;;;;;;;;;;
2022/01/27 07:05:32;;;;;;;43.77;39.10;;;5.30;99.90;;;;;;5916122;24;20467;-83
2022/01/27 07:08:31;;;;;;;;;;;;;;;;;;;;;
2022/01/27 07:17:44;;;;;;;59.80;54.07;;;5.10;99.90;;;;;;6099909;23;20442;-82
2022/01/27 07:20:22;;;;;;;79.60;73.10;;;5.20;99.90;;;;;;6129514;23;20443;-84
2022/01/27 07:25:44;;;;;;;78.73;73.13;;;5.30;99.90;;;;;;6117856;23;20411;-83
2022/01/27 07:29:15;;;;;;;;;;;;;;;;;;;;;
2022/01/27 07:39:17;;;;;;;58.40;52.67;;;5.70;99.90;;;;;;6052050;23;20456;-82
2022/01/27 07:45:53;;;;;;;;;;;;;;;;;;;;;
2022/01/27 07:48:56;;;;;;;;;;;;;;;;;;;;;
2022/01/27 07:55:04;;;;;;;;;;;;;;;;;;;;;
2022/01/27 08:04:31;;;;;;;43.00;31.50;;;6.10;99.90;;;;;;6022263;23;20960;-83
2022/01/27 08:07:47;;;;;;;;;;;;;;;;;;;;;
2022/01/27 08:47:27;;;;;;;210.67;199.57;;;6.00;99.90;;;;;;6126987;23;20418;-82
2022/01/27 09:07:28;;;;;;;;;;;;;;;;;;;;;
2022/01/27 09:30:17;;;;;;;713.43;658.73;;;5.50;99.90;;;;;;6044464;23;20448;-81
2022/01/27 09:50:04;;;;;;;742.80;682.38;;;5.60;99.90;;;;;;6062248;23;20440;-82
2022/01/27 09:56:42;;;;;;;;;;;;;;;;;;;;;
2022/01/27 10:03:11;;;;;;;;;;;;;;;;;;;;;
2022/01/27 10:06:21;;;;;;;675.17;624.00;;;5.90;99.90;;;;;;6133407;23;20438;-84
2022/01/27 10:19:18;;;;;;;648.53;598.57;;;5.90;99.90;;;;;;5960300;23;20470;-83
2022/01/27 10:28:31;;;;;;;675.93;625.17;;;6.00;99.90;;;;;;6129324;23;20410;-84
2022/01/27 10:31:19;;;;;;;669.30;619.57;;;5.80;99.90;;;;;;6130483;23;20981;-84
2022/01/27 10:33:58;;;;;;;661.57;611.57;;;6.00;99.90;;;;;;6140138;23;20411;-83
2022/01/27 10:36:46;;;;;;;684.00;630.60;;;5.90;99.90;;;;;;6130278;23;20438;-83
2022/01/27 10:39:20;;;;;;;673.03;619.73;;;5.90;99.90;;;;;;6121952;23;21019;-83
2022/01/27 10:44:55;;;;;;;654.63;605.87;;;6.10;99.90;;;;;;6128327;23;20470;-82
2022/01/27 10:48:04;;;;;;;669.97;618.70;;;6.20;99.90;;;;;;6134508;23;20399;-82
2022/01/27 10:51:25;;;;;;;633.20;587.10;;;6.30;99.90;;;;;;6207196;22;20456;-83
2022/01/27 10:57:47;;;;;;;590.83;548.40;;;6.10;99.90;;;;;;6129459;23;21023;-83
2022/01/27 11:00:31;;;;;;;593.33;548.97;;;6.10;99.90;;;;;;6101944;23;20431;-81
2022/01/27 11:03:08;;;;;;;615.70;569.57;;;6.30;99.90;;;;;;6195971;23;20433;-81
2022/01/27 11:06:10;;;;;;;616.67;569.87;;;6.20;99.90;;;;;;6199386;23;20665;-83
2022/01/27 11:08:45;;;;;;;607.17;561.80;;;6.40;99.90;;;;;;6199706;23;20428;-81
2022/01/27 11:11:39;;;;;;;;;;;;;;;;;;;;;
2022/01/27 11:14:09;;;;;;;631.57;581.57;;;6.50;99.90;;;;;;6190925;23;20445;-84
2022/01/27 11:16:43;;;;;;;648.80;599.00;;;6.60;99.90;;;;;;6193291;23;20413;-83
2022/01/27 11:22:42;;;;;;;627.53;580.17;;;6.80;99.90;;;;;;6006358;23;20406;-82
2022/01/27 11:25:49;;;;;;;628.47;581.20;;;6.70;99.90;;;;;;6188205;23;20424;-82
2022/01/27 11:28:06;;;;;;;612.33;568.50;;;6.70;99.90;;;;;;6190768;23;20436;-82
2022/01/27 11:30:44;;;;;;;615.73;570.43;;;6.70;99.90;;;;;;6190897;23;20456;-83
2022/01/27 11:33:19;;;;;;;583.33;545.07;;;6.80;99.90;;;;;;6190974;23;20393;-82
2022/01/27 11:36:07;;;;;;;599.67;559.93;;;6.70;99.90;;;;;;6190909;23;20395;-82
2022/01/27 11:38:39;;;;;;;591.00;551.30;;;6.70;99.90;;;;;;6189438;23;20442;-82
2022/01/27 11:41:42;;;;;;;594.50;554.97;;;6.80;99.90;;;;;;6191803;23;20429;-83
2022/01/27 11:44:23;;;;;;;569.77;536.50;;;6.70;99.90;;;;;;6191355;23;20432;-82
2022/01/27 11:47:22;;;;;;;582.53;545.97;;;6.60;99.90;;;;;;6192233;23;20409;-81
2022/01/27 11:49:57;;;;;;;605.40;566.10;;;6.70;99.90;;;;;;6190569;23;20487;-83
2022/01/27 11:52:29;;;;;;;603.23;563.53;;;6.60;99.90;;;;;;6191309;23;20427;-81
2022/01/27 11:55:52;;;;;;;602.00;561.37;;;6.70;99.90;;;;;;6191662;23;20393;-81
2022/01/27 11:58:23;;;;;;;598.93;559.37;;;6.60;99.90;;;;;;6189415;23;20397;-82
2022/01/27 12:01:18;;;;;;;584.37;546.90;;;6.70;99.90;;;;;;6190394;23;20790;-81
2022/01/27 12:04:41;;;;;;;599.63;558.20;;;6.60;99.90;;;;;;6192191;23;20470;-82
2022/01/27 12:07:08;;;;;;;606.80;563.50;;;6.60;99.90;;;;;;6192474;23;20401;-81
2022/01/27 12:09:39;;;;;;;621.17;574.10;;;6.60;99.90;;;;;;6190044;23;20520;-81
2022/01/27 12:12:31;;;;;;;611.00;564.30;;;6.60;99.90;;;;;;6191411;23;20402;-82
2022/01/27 12:15:31;;;;;;;624.67;576.87;;;6.60;99.90;;;;;;6194167;23;20398;-82
2022/01/27 12:18:35;;;;;;;635.93;585.03;;;6.60;99.90;;;;;;6187967;23;20409;-83
2022/01/27 12:21:32;;;;;;;628.93;578.50;;;6.60;99.90;;;;;;6194124;23;20421;-83
2022/01/27 12:24:23;;;;;;;624.73;576.27;;;6.70;99.90;;;;;;6193531;23;20397;-81
2022/01/27 12:27:09;;;;;;;646.47;591.67;;;6.60;99.90;;;;;;6192804;23;20430;-84
2022/01/27 12:29:39;;;;;;;641.37;589.47;;;6.60;99.90;;;;;;6187255;23;20613;-81
2022/01/27 12:32:21;;;;;;;623.80;574.13;;;6.50;99.90;;;;;;6190018;23;20408;-82
2022/01/27 12:34:49;;;;;;;611.90;566.03;;;6.50;99.90;;;;;;6188819;23;20482;-82
2022/01/27 12:37:18;;;;;;;630.40;579.30;;;6.60;99.90;;;;;;6187836;23;20409;-83
2022/01/27 12:40:04;;;;;;;621.30;571.73;;;6.60;99.90;;;;;;6188393;23;20437;-84
2022/01/27 12:42:35;;;;;;;615.53;567.17;;;6.60;99.90;;;;;;6187298;23;20421;-82
2022/01/27 12:45:05;;;;;;;624.73;575.17;;;6.70;99.90;;;;;;6188243;23;20389;-83
2022/01/27 12:47:38;;;;;;;592.50;547.07;;;6.70;99.90;;;;;;6187779;23;20420;-82
2022/01/27 12:50:11;;;;;;;611.53;563.07;;;6.70;99.90;;;;;;6186809;23;20437;-83
2022/01/27 12:52:47;;;;;;;604.37;558.57;;;6.70;99.90;;;;;;6188052;23;20393;-81
2022/01/27 12:55:27;;;;;;;611.77;564.77;;;6.70;99.90;;;;;;6187973;23;21104;-81
2022/01/27 12:58:20;;;;;;;615.80;569.13;;;6.80;99.90;;;;;;6188053;23;20484;-83
2022/01/27 13:04:03;;;;;;;604.93;560.90;;;6.80;99.90;;;;;;6186046;23;20408;-82
2022/01/27 13:06:33;;;;;;;587.97;546.50;;;6.60;99.90;;;;;;6186898;23;20420;-82
2022/01/27 13:09:16;;;;;;;601.67;556.40;;;6.80;99.90;;;;;;6186534;23;20425;-81
2022/01/27 13:12:10;;;;;;;612.47;564.37;;;6.90;99.90;;;;;;6196347;23;20419;-83
2022/01/27 13:14:49;;;;;;;608.90;561.10;;;6.90;99.90;;;;;;6188829;23;20776;-80
2022/01/27 13:17:24;;;;;;;628.00;576.90;;;6.90;99.90;;;;;;6197187;23;20802;-82
2022/01/27 13:19:58;;;;;;;634.10;581.60;;;6.90;99.90;;;;;;6187140;23;20452;-82
2022/01/27 13:22:32;;;;;;;649.83;594.93;;;7.00;99.90;;;;;;6187040;23;20425;-81
2022/01/27 13:25:01;;;;;;;661.50;605.80;;;7.00;99.90;;;;;;6187445;23;20466;-82
2022/01/27 13:27:28;;;;;;;650.80;596.17;;;6.80;99.90;;;;;;6186718;23;20409;-81
2022/01/27 13:29:59;;;;;;;663.67;606.87;;;6.90;99.90;;;;;;6186467;23;20429;-82
2022/01/27 13:32:26;;;;;;;645.90;590.57;;;6.90;99.90;;;;;;6197193;23;20400;-82
2022/01/27 13:34:57;;;;;;;661.50;605.00;;;7.00;99.90;;;;;;6186924;23;20471;-82
2022/01/27 13:37:32;;;;;;;639.10;586.33;;;6.90;99.90;;;;;;6187727;23;20397;-81
2022/01/27 13:42:55;;;;;;;650.87;594.37;;;6.90;99.90;;;;;;6196806;23;20456;-86
2022/01/27 13:45:22;;;;;;;624.27;570.20;;;6.90;99.90;;;;;;6186252;23;20419;-83
2022/01/27 13:47:49;;;;;;;640.27;583.90;;;7.00;99.90;;;;;;6187238;23;20413;-82
2022/01/27 13:50:37;;;;;;;;;;;;;;;;;;;;;
2022/01/27 13:53:10;;;;;;;643.93;587.67;;;7.00;99.90;;;;;;6196455;23;20405;-81
2022/01/27 13:55:36;;;;;;;638.53;584.43;;;7.00;99.90;;;;;;6187075;23;20496;-83
2022/01/27 13:58:03;;;;;;;648.47;593.10;;;7.00;99.90;;;;;;6186290;23;20842;-81
2022/01/27 14:00:37;;;;;;;646.10;590.80;;;7.00;99.90;;;;;;6185922;23;20488;-81
2022/01/27 14:03:12;;;;;;;648.37;592.03;;;7.00;99.90;;;;;;6182160;23;20417;-82
2022/01/27 14:05:40;;;;;;;640.17;586.50;;;7.10;99.90;;;;;;6187037;23;20439;-83
2022/01/27 14:08:07;;;;;;;642.10;587.67;;;7.10;99.90;;;;;;6185730;23;20417;-81
2022/01/27 14:10:41;;;;;;;641.33;587.10;;;7.10;99.90;;;;;;6186879;23;20413;-82
2022/01/27 14:13:16;;;;;;;643.03;588.23;;;7.30;99.90;;;;;;6186948;23;20444;-83
2022/01/27 14:15:47;;;;;;;643.03;588.67;;;7.20;99.90;;;;;;6187683;23;20396;-81
2022/01/27 14:18:17;;;;;;;645.30;589.23;;;7.30;99.90;;;;;;6190278;23;20397;-82
2022/01/27 14:20:55;;;;;;;637.40;583.00;;;7.20;99.90;;;;;;6188356;23;20964;-83
2022/01/27 14:23:33;;;;;;;642.97;587.50;;;7.30;99.90;;;;;;6187830;23;20409;-82
2022/01/27 14:26:06;;;;;;;645.83;590.90;;;7.30;99.90;;;;;;6198444;23;20397;-84
2022/01/27 14:28:34;;;;;;;652.47;595.57;;;7.20;99.90;;;;;;6188638;23;20443;-83
2022/01/27 14:31:01;;;;;;;645.63;589.57;;;7.30;99.90;;;;;;6190459;23;20413;-84
2022/01/27 14:33:31;;;;;;;656.97;600.27;;;7.30;99.90;;;;;;6189630;23;20415;-81
2022/01/27 14:36:05;;;;;;;660.43;602.60;;;7.40;99.90;;;;;;6191175;23;20413;-83
2022/01/27 14:38:32;;;;;;;676.50;617.40;;;7.30;99.90;;;;;;6191796;23;20464;-83
2022/01/27 14:41:02;;;;;;;691.53;630.97;;;7.30;99.90;;;;;;6188106;23;20468;-81
2022/01/27 14:43:31;;;;;;;684.17;624.87;;;7.30;99.90;;;;;;6200222;23;20443;-83
2022/01/27 14:45:58;;;;;;;679.50;619.60;;;7.50;99.90;;;;;;6188174;23;20417;-83
2022/01/27 14:48:29;;;;;;;679.57;620.67;;;7.30;99.90;;;;;;6187776;23;21049;-81
2022/01/27 14:50:57;;;;;;;682.03;623.87;;;7.40;99.90;;;;;;6198226;23;20451;-83
2022/01/27 14:53:26;;;;;;;685.30;626.53;;;7.40;99.90;;;;;;6188084;23;20750;-82
2022/01/27 14:55:55;;;;;;;680.57;621.77;;;7.40;99.90;;;;;;6188134;23;20736;-81
2022/01/27 14:58:22;;;;;;;681.40;623.83;;;7.50;99.90;;;;;;6187637;23;20413;-83
2022/01/27 15:00:49;;;;;;;667.40;607.57;;;7.40;99.90;;;;;;6188966;23;20464;-81
2022/01/27 15:03:17;;;;;;;673.47;613.40;;;7.50;99.90;;;;;;6188204;23;20423;-81
2022/01/27 15:05:47;;;;;;;676.30;616.50;;;7.40;99.90;;;;;;6188848;23;20519;-83
2022/01/27 15:08:14;;;;;;;670.17;610.67;;;7.40;99.90;;;;;;6189131;23;20421;-82
2022/01/27 15:10:43;;;;;;;676.90;617.50;;;7.50;99.90;;;;;;6188229;23;20405;-83
2022/01/27 15:13:20;;;;;;;686.60;626.70;;;7.50;99.90;;;;;;6187780;23;20785;-83
2022/01/27 15:18:50;;;;;;;670.20;610.40;;;7.50;99.90;;;;;;6197979;23;20758;-83
2022/01/27 15:21:26;;;;;;;688.27;627.20;;;7.50;99.90;;;;;;6187697;23;20662;-83
2022/01/27 15:23:55;;;;;;;685.07;624.23;;;7.50;99.90;;;;;;6188224;23;20432;-82
2022/01/27 15:26:25;;;;;;;686.63;625.33;;;7.50;99.90;;;;;;6187437;23;20413;-83
2022/01/27 15:28:53;;;;;;;684.70;626.37;;;7.50;99.90;;;;;;6186449;23;20459;-83
2022/01/27 15:31:19;;;;;;;674.87;615.93;;;7.60;99.90;;;;;;6186696;23;20500;-81
2022/01/27 15:33:46;;;;;;;671.40;611.73;;;7.60;99.90;;;;;;6187822;23;20413;-83
2022/01/27 15:36:13;;;;;;;682.43;622.63;;;7.50;99.90;;;;;;6188262;23;20508;-83
2022/01/27 15:38:42;;;;;;;698.57;635.27;;;7.60;99.90;;;;;;6187765;23;20439;-84
2022/01/27 15:41:10;;;;;;;685.63;622.33;;;7.50;99.90;;;;;;6189608;23;20981;-82
2022/01/27 15:43:38;;;;;;;678.00;618.37;;;7.50;99.90;;;;;;6187012;23;20929;-83
2022/01/27 15:46:05;;;;;;;690.80;629.60;;;7.50;99.90;;;;;;6188127;23;20829;-83
2022/01/27 15:48:34;;;;;;;697.03;635.07;;;7.60;99.90;;;;;;6188298;23;20433;-80
2022/01/27 15:51:01;;;;;;;687.37;626.60;;;7.50;99.90;;;;;;6187128;23;20911;-81
2022/01/27 15:53:28;;;;;;;696.33;634.77;;;7.60;99.90;;;;;;6187602;23;20745;-81
2022/01/27 15:55:56;;;;;;;696.97;634.57;;;7.60;99.90;;;;;;6186923;23;20481;-81
2022/01/27 15:58:23;;;;;;;694.67;631.07;;;7.70;99.90;;;;;;6186662;23;20938;-82
2022/01/27 16:00:52;;;;;;;691.37;628.53;;;7.70;99.90;;;;;;6187294;23;20433;-83
2022/01/27 16:03:19;;;;;;;702.53;639.43;;;7.70;99.90;;;;;;6188274;23;20417;-81
2022/01/27 16:05:46;;;;;;;708.97;646.37;;;7.70;99.90;;;;;;6187066;23;20738;-84
2022/01/27 16:08:13;;;;;;;702.83;639.27;;;7.70;99.90;;;;;;6185876;23;20413;-86
2022/01/27 16:10:48;;;;;;;715.57;650.40;;;7.70;99.90;;;;;;6185670;23;20422;-82
2022/01/27 16:13:43;;;;;;;716.67;651.87;;;7.70;99.90;;;;;;6186027;23;20396;-81
2022/01/27 16:16:11;;;;;;;717.67;651.77;;;7.80;99.90;;;;;;6168901;23;20463;-80
2022/01/27 16:18:38;;;;;;;726.33;661.67;;;7.80;99.90;;;;;;6185738;23;20433;-81
2022/01/27 16:21:33;;;;;;;712.17;646.90;;;7.80;99.90;;;;;;6186196;23;20472;-81
2022/01/27 16:24:10;;;;;;;719.13;654.13;;;7.70;99.90;;;;;;6186462;23;20457;-83
2022/01/27 16:26:37;;;;;;;710.67;645.90;;;7.80;99.90;;;;;;6186417;23;20480;-85
2022/01/27 16:29:04;;;;;;;703.50;639.60;;;7.80;99.90;;;;;;6185922;23;20968;-84
2022/01/27 16:31:56;;;;;;;710.07;645.87;;;7.80;99.90;;;;;;6186622;23;20408;-81
2022/01/27 16:34:47;;;;;;;713.27;648.47;;;7.80;99.90;;;;;;6187455;23;20397;-81
2022/01/27 16:37:14;;;;;;;709.83;644.87;;;7.90;99.90;;;;;;6175759;23;20952;-83
2022/01/27 16:39:48;;;;;;;709.40;644.23;;;7.80;99.90;;;;;;6185556;23;20460;-81
2022/01/27 16:42:16;;;;;;;697.80;633.70;;;7.80;99.90;;;;;;6187514;23;20407;-82
2022/01/27 16:45:00;;;;;;;709.23;645.13;;;7.90;99.90;;;;;;6187180;23;20727;-83
2022/01/27 16:47:43;;;;;;;707.40;643.10;;;7.80;99.90;;;;;;6184753;23;20413;-83
2022/01/27 16:50:14;;;;;;;694.70;632.30;;;7.90;99.90;;;;;;6196175;23;20436;-83
2022/01/27 16:52:41;;;;;;;702.33;638.27;;;7.80;99.90;;;;;;6187328;23;20480;-83
2022/01/27 16:55:40;;;;;;;702.47;637.60;;;7.80;99.90;;;;;;6187892;23;20409;-81
2022/01/27 16:58:52;;;;;;;703.37;640.60;;;7.90;99.90;;;;;;6178362;23;20937;-85
2022/01/27 17:05:03;;;;;;;693.93;632.13;;;8.00;99.90;;;;;;6167295;23;20926;-83
2022/01/27 17:08:15;;;;;;;695.40;634.30;;;7.90;99.90;;;;;;6187142;23;20480;-83
2022/01/27 17:17:48;;;;;;;688.77;628.50;;;8.00;99.90;;;;;;6142062;23;20431;-81
2022/01/27 17:20:17;;;;;;;691.80;629.90;;;7.90;99.90;;;;;;6188571;23;20556;-83
2022/01/27 17:22:52;;;;;;;683.57;623.17;;;7.90;99.90;;;;;;6189121;23;20413;-83
2022/01/27 17:25:46;;;;;;;673.73;614.33;;;7.80;99.90;;;;;;6189527;23;20412;-83
2022/01/27 17:28:28;;;;;;;639.63;589.40;;;7.80;99.90;;;;;;6189331;23;20408;-83
2022/01/27 17:30:55;;;;;;;613.07;567.83;;;7.90;99.90;;;;;;6189136;23;20437;-81
2022/01/27 17:33:22;;;;;;;613.67;568.63;;;8.00;99.90;;;;;;6190822;23;20417;-83
2022/01/27 17:35:50;;;;;;;627.77;579.47;;;7.90;99.90;;;;;;6192124;23;20416;-82
2022/01/27 17:38:17;;;;;;;642.57;590.70;;;8.00;99.90;;;;;;6190965;23;20413;-82
2022/01/27 17:40:47;;;;;;;639.40;590.50;;;7.80;99.90;;;;;;6190645;23;20443;-83
2022/01/27 17:43:19;;;;;;;634.83;586.80;;;7.80;99.90;;;;;;6198291;23;20933;-84
2022/01/27 17:45:47;;;;;;;617.90;572.90;;;8.00;99.90;;;;;;6189528;23;20393;-82
2022/01/27 17:48:15;;;;;;;628.10;581.30;;;7.90;99.90;;;;;;6190550;23;20754;-83
2022/01/27 17:50:42;;;;;;;627.37;580.07;;;7.90;99.90;;;;;;6186696;23;20448;-83
2022/01/27 17:53:10;;;;;;;628.57;581.77;;;7.90;99.90;;;;;;6188025;23;20424;-82
2022/01/27 17:55:37;;;;;;;603.77;560.73;;;7.90;99.90;;;;;;6188426;23;20413;-81
2022/01/27 17:58:04;;;;;;;638.17;590.00;;;7.80;99.90;;;;;;6188535;23;20479;-81
2022/01/27 18:00:31;;;;;;;619.10;572.30;;;7.90;99.90;;;;;;6197749;23;20439;-82
2022/01/27 18:02:57;;;;;;;570.97;538.03;;;7.70;99.90;;;;;;6189638;23;20413;-83
2022/01/27 18:05:25;;;;;;;592.83;557.67;;;7.70;99.90;;;;;;6189468;23;20419;-83
2022/01/27 18:07:54;;;;;;;622.20;579.70;;;7.50;99.90;;;;;;6189273;23;20417;-84
2022/01/27 18:10:24;;;;;;;615.97;574.83;;;7.40;99.90;;;;;;6190151;23;20436;-82
2022/01/27 18:12:51;;;;;;;622.10;579.00;;;7.40;99.90;;;;;;6189951;23;20917;-84
2022/01/27 18:15:20;;;;;;;625.67;580.97;;;7.30;99.90;;;;;;6188958;23;20413;-83
2022/01/27 18:17:47;;;;;;;622.57;579.77;;;7.40;99.90;;;;;;6189346;23;20417;-82
2022/01/27 18:20:13;;;;;;;637.00;590.80;;;7.30;99.90;;;;;;6188543;23;20977;-82
2022/01/27 18:22:40;;;;;;;630.23;589.67;;;7.30;99.90;;;;;;6192081;23;20420;-84
2022/01/27 18:25:08;;;;;;;624.10;582.73;;;7.40;99.90;;;;;;6192906;23;20413;-83
2022/01/27 18:27:36;;;;;;;616.87;579.00;;;7.40;99.90;;;;;;6191868;23;20413;-84
2022/01/27 18:30:04;;;;;;;634.77;592.00;;;7.50;99.90;;;;;;6189245;23;20440;-83
2022/01/27 18:32:30;;;;;;;645.90;598.20;;;7.40;99.90;;;;;;6189570;23;20535;-82
2022/01/27 18:34:57;;;;;;;653.07;602.17;;;7.10;99.90;;;;;;6189428;23;20906;-84
2022/01/27 18:37:24;;;;;;;652.13;601.63;;;7.10;99.90;;;;;;6188638;23;20413;-82
2022/01/27 18:39:50;;;;;;;668.67;613.73;;;7.10;99.90;;;;;;6189356;23;20433;-82
2022/01/27 18:42:17;;;;;;;669.60;615.50;;;7.30;99.90;;;;;;6187911;23;20452;-84
2022/01/27 18:44:45;;;;;;;665.97;611.67;;;7.20;99.90;;;;;;6186687;23;20926;-82
2022/01/27 18:47:12;;;;;;;661.17;608.10;;;7.40;99.90;;;;;;6187643;23;20413;-84
2022/01/27 18:49:39;;;;;;;663.80;612.33;;;7.50;99.90;;;;;;6188328;23;20971;-82
2022/01/27 18:52:10;;;;;;;664.33;614.93;;;7.70;99.90;;;;;;6188377;23;20717;-85
2022/01/27 18:54:36;;;;;;;669.40;621.40;;;7.50;99.90;;;;;;6190910;23;20398;-81
2022/01/27 18:57:04;;;;;;;675.33;631.20;;;7.60;99.90;;;;;;6188460;23;20413;-82
2022/01/27 18:59:33;;;;;;;695.93;649.20;;;7.60;99.90;;;;;;6187513;23;20436;-84
2022/01/27 19:02:02;;;;;;;709.57;660.97;;;7.60;99.90;;;;;;6187591;23;20436;-82
2022/01/27 19:04:28;;;;;;;717.20;673.87;;;7.50;99.90;;;;;;6188057;23;20420;-84
2022/01/27 19:06:55;;;;;;;700.93;665.23;;;7.50;99.90;;;;;;6188546;23;20420;-82
2022/01/27 19:09:23;;;;;;;627.63;601.43;;;7.50;99.90;;;;;;6188623;23;20433;-84
2022/01/27 19:11:49;;;;;;;622.57;596.67;;;7.40;99.90;;;;;;6190667;23;20447;-84
2022/01/27 19:14:16;;;;;;;653.40;624.10;;;7.50;99.90;;;;;;6189231;23;20433;-84
2022/01/27 19:16:43;;;;;;;662.73;633.10;;;7.40;99.90;;;;;;6190726;23;20601;-85
2022/01/27 19:19:13;;;;;;;600.57;575.43;;;7.40;99.90;;;;;;6188218;23;20440;-85
2022/01/27 19:21:40;;;;;;;530.97;510.63;;;7.40;99.90;;;;;;6188957;23;20511;-83
2022/01/27 19:24:09;;;;;;;508.17;489.37;;;7.30;99.90;;;;;;6190373;23;20413;-83
2022/01/27 19:26:38;;;;;;;498.87;480.30;;;7.40;99.90;;;;;;6193098;23;20412;-85
2022/01/27 19:29:05;;;;;;;546.20;524.80;;;7.40;99.90;;;;;;6190978;23;20440;-84
2022/01/27 19:31:32;;;;;;;578.40;552.80;;;7.40;99.90;;;;;;6191203;23;20409;-84
2022/01/27 19:33:58;;;;;;;604.83;578.37;;;7.40;99.90;;;;;;6190259;23;20412;-86
2022/01/27 19:36:29;;;;;;;664.33;630.87;;;7.40;99.90;;;;;;6191545;23;20926;-85
2022/01/27 19:38:58;;;;;;;673.10;640.13;;;7.30;99.90;;;;;;6192883;23;20516;-83
2022/01/27 19:41:25;;;;;;;683.17;648.47;;;7.30;99.90;;;;;;6188515;23;20436;-84
2022/01/27 19:43:51;;;;;;;708.13;670.53;;;7.40;99.90;;;;;;6191143;23;20417;-82
2022/01/27 19:46:18;;;;;;;723.30;684.43;;;7.50;99.90;;;;;;6187451;23;20763;-84
2022/01/27 19:48:45;;;;;;;723.87;684.20;;;7.30;99.90;;;;;;6189248;23;20445;-82
2022/01/27 19:51:15;;;;;;;699.00;663.33;;;7.20;99.90;;;;;;6188812;23;20417;-84
2022/01/27 19:53:45;;;;;;;699.90;664.60;;;7.20;99.90;;;;;;6187870;23;20416;-82
2022/01/27 19:56:13;;;;;;;605.50;578.73;;;7.10;99.90;;;;;;6189006;23;20820;-85
2022/01/27 19:58:40;;;;;;;593.73;567.83;;;7.10;99.90;;;;;;6188020;23;20440;-83
2022/01/27 20:01:07;;;;;;;629.73;600.13;;;7.00;99.90;;;;;;6189043;23;20761;-83
2022/01/27 20:03:36;;;;;;;672.00;638.37;;;7.00;99.90;;;;;;6188351;23;20721;-82
2022/01/27 20:06:03;;;;;;;688.43;652.17;;;7.00;99.90;;;;;;6189447;23;20413;-83
2022/01/27 20:08:31;;;;;;;674.73;639.90;;;7.00;99.90;;;;;;6190622;23;20437;-86
2022/01/27 20:10:59;;;;;;;619.13;589.13;;;7.00;99.90;;;;;;6192666;23;20445;-84
2022/01/27 20:13:26;;;;;;;636.97;605.37;;;7.20;99.90;;;;;;6191692;23;20420;-84
2022/01/27 20:15:58;;;;;;;580.90;555.27;;;7.10;99.90;;;;;;6192568;23;20463;-85
2022/01/27 20:18:26;;;;;;;562.87;538.67;;;7.10;99.90;;;;;;6204266;23;20499;-84
2022/01/27 20:20:53;;;;;;;623.93;594.77;;;7.10;99.90;;;;;;6190304;23;20409;-86
2022/01/27 20:23:24;;;;;;;655.50;623.50;;;7.10;99.90;;;;;;6189408;23;20504;-85
2022/01/27 20:25:51;;;;;;;607.23;579.43;;;7.10;99.90;;;;;;6190684;23;20495;-83
2022/01/27 20:28:19;;;;;;;544.17;521.40;;;7.20;99.90;;;;;;6191838;23;20413;-84
2022/01/27 20:30:46;;;;;;;575.43;551.73;;;7.20;99.90;;;;;;6189639;23;20423;-84
2022/01/27 20:33:12;;;;;;;555.47;533.37;;;7.00;99.90;;;;;;6189895;23;20754;-85